sensor_id;sensor_type;location;lat;lon;timestamp;temperature;humidity
5346;DHT22;2695;49.444;11.054;2022-09-12T00:01:14;14.40;99.90
5346;DHT22;2695;49.444;11.054;2022-09-12T00:03:44;14.40;99.90
5346;DHT22;2695;49.444;11.054;2022-09-12T00:06:15;14.40;99.90
5346;DHT22;2695;49.444;11.054;2022-09-12T00:08:48;14.30;99.90
5346;DHT22;2695;49.444;11.054;2022-09-12T00:11:17;14.30;99.90
5346;DHT22;2695;49.444;11.054;2022-09-12T00:13:45;14.20;99.90
5346;DHT22;2695;49.444;11.054;2022-09-12T00:16:14;14.20;99.90
5346;DHT22;2695;49.444;11.054;2022-09-12T00:18:44;14.20;99.90
5346;DHT22;2695;49.444;11.054;2022-09-12T00:21:14;14.30;99.90
5346;DHT22;2695;49.444;11.054;2022-09-12T00:23:42;14.20;99.90
5346;DHT22;2695;49.444;11.054;2022-09-12T00:26:10;14.20;99.90
5346;DHT22;2695;49.444;11.054;2022-09-12T00:28:39;14.20;99.90
5346;DHT22;2695;49.444;11.054;2022-09-12T00:31:09;14.20;99.90
5346;DHT22;2695;49.444;11.054;2022-09-12T00:33:38;14.10;99.90
5346;DHT22;2695;49.444;11.054;2022-09-12T00:36:09;14.20;99.90
5346;DHT22;2695;49.444;11.054;2022-09-12T00:38:37;14.00;99.90
5346;DHT22;2695;49.444;11.054;2022-09-12T00:41:13;14.00;99.90
5346;DHT22;2695;49.444;11.054;2022-09-12T00:43:43;14.10;99.90
5346;DHT22;2695;49.444;11.054;2022-09-12T00:46:25;13.90;99.90
5346;DHT22;2695;49.444;11.054;2022-09-12T00:48:57;13.80;99.90
5346;DHT22;2695;49.444;11.054;2022-09-12T00:51:28;13.80;99.90
5346;DHT22;2695;49.444;11.054;2022-09-12T00:53:59;13.80;99.90
5346;DHT22;2695;49.444;11.054;2022-09-12T00:56:29;13.80;99.90
5346;DHT22;2695;49.444;11.054;2022-09-12T00:59:02;13.80;99.90
5346;DHT22;2695;49.444;11.054;2022-09-12T01:01:30;13.80;99.90
5346;DHT22;2695;49.444;11.054;2022-09-12T01:03:59;13.80;99.90
5346;DHT22;2695;49.444;11.054;2022-09-12T01:06:33;13.80;99.90
5346;DHT22;2695;49.444;11.054;2022-09-12T01:09:03;13.80;99.90
5346;DHT22;2695;49.444;11.054;2022-09-12T01:11:32;13.80;99.90
5346;DHT22;2695;49.444;11.054;2022-09-12T01:14:01;13.80;99.90
5346;DHT22;2695;49.444;11.054;2022-09-12T01:16:28;13.70;99.90
5346;DHT22;2695;49.444;11.054;2022-09-12T01:19:17;13.70;99.90
5346;DHT22;2695;49.444;11.054;2022-09-12T01:22:03;13.70;99.90
5346;DHT22;2695;49.444;11.054;2022-09-12T01:24:51;13.70;99.90
5346;DHT22;2695;49.444;11.054;2022-09-12T01:27:43;13.70;99.90
5346;DHT22;2695;49.444;11.054;2022-09-12T01:30:39;13.60;99.90
5346;DHT22;2695;49.444;11.054;2022-09-12T01:33:33;13.60;99.90
5346;DHT22;2695;49.444;11.054;2022-09-12T01:36:27;13.60;99.90
5346;DHT22;2695;49.444;11.054;2022-09-12T01:39:00;13.50;99.90
5346;DHT22;2695;49.444;11.054;2022-09-12T01:41:34;13.60;99.90
5346;DHT22;2695;49.444;11.054;2022-09-12T01:44:12;13.60;99.90
5346;DHT22;2695;49.444;11.054;2022-09-12T01:46:46;13.60;99.90
5346;DHT22;2695;49.444;11.054;2022-09-12T01:49:19;13.60;99.90
5346;DHT22;2695;49.444;11.054;2022-09-12T01:51:54;13.60;99.90
5346;DHT22;2695;49.444;11.054;2022-09-12T01:54:28;13.60;99.90
5346;DHT22;2695;49.444;11.054;2022-09-12T01:57:00;13.60;99.90
5346;DHT22;2695;49.444;11.054;2022-09-12T01:59:33;13.50;99.90
5346;DHT22;2695;49.444;11.054;2022-09-12T02:02:07;13.60;99.90
5346;DHT22;2695;49.444;11.054;2022-09-12T02:04:41;13.50;99.90
5346;DHT22;2695;49.444;11.054;2022-09-12T02:07:15;13.50;99.90
5346;DHT22;2695;49.444;11.054;2022-09-12T02:09:48;13.50;99.90
5346;DHT22;2695;49.444;11.054;2022-09-12T02:12:22;13.50;99.90
5346;DHT22;2695;49.444;11.054;2022-09-12T02:14:54;13.50;99.90
5346;DHT22;2695;49.444;11.054;2022-09-12T02:17:25;13.40;99.90
5346;DHT22;2695;49.444;11.054;2022-09-12T02:19:55;13.40;99.90
5346;DHT22;2695;49.444;11.054;2022-09-12T02:22:26;13.40;99.90
5346;DHT22;2695;49.444;11.054;2022-09-12T02:24:56;13.30;99.90
5346;DHT22;2695;49.444;11.054;2022-09-12T02:27:31;13.30;99.90
5346;DHT22;2695;49.444;11.054;2022-09-12T02:30:00;13.20;99.90
5346;DHT22;2695;49.444;11.054;2022-09-12T02:32:35;13.20;99.90
5346;DHT22;2695;49.444;11.054;2022-09-12T02:35:07;13.20;99.90
5346;DHT22;2695;49.444;11.054;2022-09-12T02:37:45;13.20;99.90
5346;DHT22;2695;49.444;11.054;2022-09-12T02:40:16;13.20;99.90
5346;DHT22;2695;49.444;11.054;2022-09-12T02:42:45;13.20;99.90
5346;DHT22;2695;49.444;11.054;2022-09-12T02:45:13;13.10;99.90
5346;DHT22;2695;49.444;11.054;2022-09-12T02:47:47;13.20;99.90
5346;DHT22;2695;49.444;11.054;2022-09-12T02:50:16;13.10;99.90
5346;DHT22;2695;49.444;11.054;2022-09-12T02:52:44;13.10;99.90
5346;DHT22;2695;49.444;11.054;2022-09-12T02:55:13;13.10;99.90
5346;DHT22;2695;49.444;11.054;2022-09-12T02:57:42;13.00;99.90
5346;DHT22;2695;49.444;11.054;2022-09-12T03:00:11;13.00;99.90
5346;DHT22;2695;49.444;11.054;2022-09-12T03:03:19;13.00;99.90
5346;DHT22;2695;49.444;11.054;2022-09-12T03:05:54;13.00;99.90
5346;DHT22;2695;49.444;11.054;2022-09-12T03:08:44;13.00;99.90
5346;DHT22;2695;49.444;11.054;2022-09-12T03:11:28;12.90;99.90
5346;DHT22;2695;49.444;11.054;2022-09-12T03:14:07;12.90;99.90
5346;DHT22;2695;49.444;11.054;2022-09-12T03:16:43;12.80;99.90
5346;DHT22;2695;49.444;11.054;2022-09-12T03:19:24;12.80;99.90
5346;DHT22;2695;49.444;11.054;2022-09-12T03:22:04;12.70;99.90
5346;DHT22;2695;49.444;11.054;2022-09-12T03:24:41;12.70;99.90
5346;DHT22;2695;49.444;11.054;2022-09-12T03:27:14;12.70;99.90
5346;DHT22;2695;49.444;11.054;2022-09-12T03:29:44;12.70;99.90
5346;DHT22;2695;49.444;11.054;2022-09-12T03:32:14;12.70;99.90
5346;DHT22;2695;49.444;11.054;2022-09-12T03:34:43;12.60;99.90
5346;DHT22;2695;49.444;11.054;2022-09-12T03:37:11;12.60;99.90
5346;DHT22;2695;49.444;11.054;2022-09-12T03:39:39;12.60;99.90
5346;DHT22;2695;49.444;11.054;2022-09-12T03:42:07;12.60;99.90
5346;DHT22;2695;49.444;11.054;2022-09-12T03:44:35;12.60;99.90
5346;DHT22;2695;49.444;11.054;2022-09-12T03:47:03;12.50;99.90
5346;DHT22;2695;49.444;11.054;2022-09-12T03:49:36;12.50;99.90
5346;DHT22;2695;49.444;11.054;2022-09-12T03:52:06;12.40;99.90
5346;DHT22;2695;49.444;11.054;2022-09-12T03:54:37;12.40;99.90
5346;DHT22;2695;49.444;11.054;2022-09-12T03:57:07;12.40;99.90
5346;DHT22;2695;49.444;11.054;2022-09-12T03:59:35;12.40;99.90
5346;DHT22;2695;49.444;11.054;2022-09-12T04:02:03;12.40;99.90
5346;DHT22;2695;49.444;11.054;2022-09-12T04:04:32;12.40;99.90
5346;DHT22;2695;49.444;11.054;2022-09-12T04:07:00;12.50;99.90
5346;DHT22;2695;49.444;11.054;2022-09-12T04:09:29;12.40;99.90
5346;DHT22;2695;49.444;11.054;2022-09-12T04:11:57;12.50;99.90
5346;DHT22;2695;49.444;11.054;2022-09-12T04:14:25;12.40;99.90
5346;DHT22;2695;49.444;11.054;2022-09-12T04:16:53;12.30;99.90
5346;DHT22;2695;49.444;11.054;2022-09-12T04:19:21;12.30;99.90
5346;DHT22;2695;49.444;11.054;2022-09-12T04:21:49;12.30;99.90
5346;DHT22;2695;49.444;11.054;2022-09-12T04:24:17;12.30;99.90
5346;DHT22;2695;49.444;11.054;2022-09-12T04:26:47;12.30;99.90
5346;DHT22;2695;49.444;11.054;2022-09-12T04:29:15;12.30;99.90
5346;DHT22;2695;49.444;11.054;2022-09-12T04:31:43;12.20;99.90
5346;DHT22;2695;49.444;11.054;2022-09-12T04:34:11;12.40;99.90
5346;DHT22;2695;49.444;11.054;2022-09-12T04:36:39;12.30;99.90
5346;DHT22;2695;49.444;11.054;2022-09-12T04:39:07;12.30;99.90
5346;DHT22;2695;49.444;11.054;2022-09-12T04:41:37;12.30;99.90
5346;DHT22;2695;49.444;11.054;2022-09-12T04:44:10;12.20;99.90
5346;DHT22;2695;49.444;11.054;2022-09-12T04:46:40;12.20;99.90
5346;DHT22;2695;49.444;11.054;2022-09-12T04:49:09;12.20;99.90
5346;DHT22;2695;49.444;11.054;2022-09-12T04:51:39;12.20;99.90
5346;DHT22;2695;49.444;11.054;2022-09-12T04:54:10;12.20;99.90
5346;DHT22;2695;49.444;11.054;2022-09-12T04:56:40;12.20;99.90
5346;DHT22;2695;49.444;11.054;2022-09-12T04:59:10;12.20;99.90
5346;DHT22;2695;49.444;11.054;2022-09-12T05:01:38;12.20;99.90
5346;DHT22;2695;49.444;11.054;2022-09-12T05:04:08;12.30;99.90
5346;DHT22;2695;49.444;11.054;2022-09-12T05:06:36;12.30;99.90
5346;DHT22;2695;49.444;11.054;2022-09-12T05:09:06;12.30;99.90
5346;DHT22;2695;49.444;11.054;2022-09-12T05:11:37;12.50;99.90
5346;DHT22;2695;49.444;11.054;2022-09-12T05:14:26;12.50;99.90
5346;DHT22;2695;49.444;11.054;2022-09-12T05:16:54;12.50;99.90
5346;DHT22;2695;49.444;11.054;2022-09-12T05:19:25;12.60;99.90
5346;DHT22;2695;49.444;11.054;2022-09-12T05:21:53;12.70;99.90
5346;DHT22;2695;49.444;11.054;2022-09-12T05:24:21;12.80;99.90
5346;DHT22;2695;49.444;11.054;2022-09-12T05:26:50;13.00;99.90
5346;DHT22;2695;49.444;11.054;2022-09-12T05:29:18;13.30;99.90
5346;DHT22;2695;49.444;11.054;2022-09-12T05:31:47;13.50;99.90
5346;DHT22;2695;49.444;11.054;2022-09-12T05:34:18;13.50;99.90
5346;DHT22;2695;49.444;11.054;2022-09-12T05:36:46;13.40;99.90
5346;DHT22;2695;49.444;11.054;2022-09-12T05:39:15;13.40;99.90
5346;DHT22;2695;49.444;11.054;2022-09-12T05:41:44;13.40;99.90
5346;DHT22;2695;49.444;11.054;2022-09-12T05:44:13;13.50;99.90
5346;DHT22;2695;49.444;11.054;2022-09-12T05:46:42;13.60;99.90
5346;DHT22;2695;49.444;11.054;2022-09-12T05:49:12;13.70;99.90
5346;DHT22;2695;49.444;11.054;2022-09-12T05:51:42;14.00;99.90
5346;DHT22;2695;49.444;11.054;2022-09-12T05:54:12;14.20;99.90
5346;DHT22;2695;49.444;11.054;2022-09-12T05:56:42;14.50;99.90
5346;DHT22;2695;49.444;11.054;2022-09-12T05:59:11;14.80;99.90
5346;DHT22;2695;49.444;11.054;2022-09-12T06:01:40;15.00;99.90
5346;DHT22;2695;49.444;11.054;2022-09-12T06:04:08;15.10;99.90
5346;DHT22;2695;49.444;11.054;2022-09-12T06:06:39;15.20;99.90
5346;DHT22;2695;49.444;11.054;2022-09-12T06:09:09;15.20;99.90
5346;DHT22;2695;49.444;11.054;2022-09-12T06:11:38;15.40;99.90
5346;DHT22;2695;49.444;11.054;2022-09-12T06:14:09;15.50;99.90
5346;DHT22;2695;49.444;11.054;2022-09-12T06:16:38;15.50;99.90
5346;DHT22;2695;49.444;11.054;2022-09-12T06:19:12;15.60;99.90
5346;DHT22;2695;49.444;11.054;2022-09-12T06:21:42;15.70;99.90
5346;DHT22;2695;49.444;11.054;2022-09-12T06:24:11;15.70;99.90
5346;DHT22;2695;49.444;11.054;2022-09-12T06:26:39;15.80;99.90
5346;DHT22;2695;49.444;11.054;2022-09-12T06:29:08;16.10;99.90
5346;DHT22;2695;49.444;11.054;2022-09-12T06:31:38;16.70;99.90
5346;DHT22;2695;49.444;11.054;2022-09-12T06:34:08;17.20;99.90
5346;DHT22;2695;49.444;11.054;2022-09-12T06:36:38;17.30;99.90
5346;DHT22;2695;49.444;11.054;2022-09-12T06:39:10;17.40;99.90
5346;DHT22;2695;49.444;11.054;2022-09-12T06:41:39;17.60;99.90
5346;DHT22;2695;49.444;11.054;2022-09-12T06:44:11;18.50;99.90
5346;DHT22;2695;49.444;11.054;2022-09-12T06:46:39;19.60;99.90
5346;DHT22;2695;49.444;11.054;2022-09-12T06:49:07;20.30;99.90
5346;DHT22;2695;49.444;11.054;2022-09-12T06:51:35;21.10;99.90
5346;DHT22;2695;49.444;11.054;2022-09-12T06:54:03;21.90;99.90
5346;DHT22;2695;49.444;11.054;2022-09-12T06:56:33;23.10;99.90
5346;DHT22;2695;49.444;11.054;2022-09-12T06:59:01;24.30;99.90
5346;DHT22;2695;49.444;11.054;2022-09-12T07:01:30;25.40;99.60
5346;DHT22;2695;49.444;11.054;2022-09-12T07:04:00;26.20;97.30
5346;DHT22;2695;49.444;11.054;2022-09-12T07:06:30;27.30;93.70
5346;DHT22;2695;49.444;11.054;2022-09-12T07:09:03;28.00;91.40
5346;DHT22;2695;49.444;11.054;2022-09-12T07:11:33;28.80;86.20
5346;DHT22;2695;49.444;11.054;2022-09-12T07:14:03;29.50;79.90
5346;DHT22;2695;49.444;11.054;2022-09-12T07:16:33;30.00;75.10
5346;DHT22;2695;49.444;11.054;2022-09-12T07:19:02;30.20;72.10
5346;DHT22;2695;49.444;11.054;2022-09-12T07:21:30;30.50;70.30
5346;DHT22;2695;49.444;11.054;2022-09-12T07:23:58;31.10;66.80
5346;DHT22;2695;49.444;11.054;2022-09-12T07:26:28;31.40;64.30
5346;DHT22;2695;49.444;11.054;2022-09-12T07:28:57;31.80;62.40
5346;DHT22;2695;49.444;11.054;2022-09-12T07:31:45;32.10;60.80
5346;DHT22;2695;49.444;11.054;2022-09-12T07:34:13;32.70;58.30
5346;DHT22;2695;49.444;11.054;2022-09-12T07:36:42;32.90;56.60
5346;DHT22;2695;49.444;11.054;2022-09-12T07:39:10;33.10;55.30
5346;DHT22;2695;49.444;11.054;2022-09-12T07:41:39;33.10;55.30
5346;DHT22;2695;49.444;11.054;2022-09-12T07:44:08;33.30;53.70
5346;DHT22;2695;49.444;11.054;2022-09-12T07:46:37;33.30;53.10
5346;DHT22;2695;49.444;11.054;2022-09-12T07:49:05;33.40;52.40
5346;DHT22;2695;49.444;11.054;2022-09-12T07:51:34;33.40;52.00
5346;DHT22;2695;49.444;11.054;2022-09-12T07:54:06;33.70;51.20
5346;DHT22;2695;49.444;11.054;2022-09-12T07:56:34;33.90;50.90
5346;DHT22;2695;49.444;11.054;2022-09-12T07:59:05;34.10;50.40
5346;DHT22;2695;49.444;11.054;2022-09-12T08:01:35;34.40;50.00
5346;DHT22;2695;49.444;11.054;2022-09-12T08:04:03;34.80;48.50
5346;DHT22;2695;49.444;11.054;2022-09-12T08:06:32;34.90;48.40
5346;DHT22;2695;49.444;11.054;2022-09-12T08:09:03;35.20;47.10
5346;DHT22;2695;49.444;11.054;2022-09-12T08:11:33;35.10;47.20
5346;DHT22;2695;49.444;11.054;2022-09-12T08:14:01;35.40;46.40
5346;DHT22;2695;49.444;11.054;2022-09-12T08:16:31;35.50;46.10
5346;DHT22;2695;49.444;11.054;2022-09-12T08:19:02;35.80;45.50
5346;DHT22;2695;49.444;11.054;2022-09-12T08:21:31;36.00;45.10
5346;DHT22;2695;49.444;11.054;2022-09-12T08:24:02;36.20;44.10
5346;DHT22;2695;49.444;11.054;2022-09-12T08:26:30;36.20;44.50
5346;DHT22;2695;49.444;11.054;2022-09-12T08:28:59;36.40;43.90
5346;DHT22;2695;49.444;11.054;2022-09-12T08:31:28;36.50;43.20
5346;DHT22;2695;49.444;11.054;2022-09-12T08:33:58;36.60;43.10
5346;DHT22;2695;49.444;11.054;2022-09-12T08:36:28;37.00;42.40
5346;DHT22;2695;49.444;11.054;2022-09-12T08:38:58;37.10;42.50
5346;DHT22;2695;49.444;11.054;2022-09-12T08:41:29;37.50;41.50
5346;DHT22;2695;49.444;11.054;2022-09-12T08:44:26;37.50;41.20
5346;DHT22;2695;49.444;11.054;2022-09-12T08:47:12;37.60;40.80
5346;DHT22;2695;49.444;11.054;2022-09-12T08:49:46;37.60;40.50
5346;DHT22;2695;49.444;11.054;2022-09-12T08:52:21;37.60;40.70
5346;DHT22;2695;49.444;11.054;2022-09-12T08:54:50;37.40;40.90
5346;DHT22;2695;49.444;11.054;2022-09-12T08:57:19;37.50;40.50
5346;DHT22;2695;49.444;11.054;2022-09-12T08:59:48;37.80;40.10
5346;DHT22;2695;49.444;11.054;2022-09-12T09:02:51;38.00;39.60
5346;DHT22;2695;49.444;11.054;2022-09-12T09:05:26;37.90;39.50
5346;DHT22;2695;49.444;11.054;2022-09-12T09:08:26;37.50;39.60
5346;DHT22;2695;49.444;11.054;2022-09-12T09:11:03;37.10;39.80
5346;DHT22;2695;49.444;11.054;2022-09-12T09:13:46;37.20;39.90
5346;DHT22;2695;49.444;11.054;2022-09-12T09:16:36;37.30;39.80
5346;DHT22;2695;49.444;11.054;2022-09-12T09:19:10;37.60;39.50
5346;DHT22;2695;49.444;11.054;2022-09-12T09:21:44;37.90;39.10
5346;DHT22;2695;49.444;11.054;2022-09-12T09:24:18;38.10;38.50
5346;DHT22;2695;49.444;11.054;2022-09-12T09:26:52;38.30;38.60
5346;DHT22;2695;49.444;11.054;2022-09-12T09:29:25;38.30;38.80
5346;DHT22;2695;49.444;11.054;2022-09-12T09:31:54;38.50;38.30
5346;DHT22;2695;49.444;11.054;2022-09-12T09:34:24;38.60;38.00
5346;DHT22;2695;49.444;11.054;2022-09-12T09:37:01;38.80;37.30
5346;DHT22;2695;49.444;11.054;2022-09-12T09:39:40;39.00;36.60
5346;DHT22;2695;49.444;11.054;2022-09-12T09:42:25;38.80;36.80
5346;DHT22;2695;49.444;11.054;2022-09-12T09:44:57;38.50;37.10
5346;DHT22;2695;49.444;11.054;2022-09-12T09:47:26;38.30;37.40
5346;DHT22;2695;49.444;11.054;2022-09-12T09:49:55;38.30;36.90
5346;DHT22;2695;49.444;11.054;2022-09-12T09:52:26;38.20;37.60
5346;DHT22;2695;49.444;11.054;2022-09-12T09:54:59;38.30;37.30
5346;DHT22;2695;49.444;11.054;2022-09-12T09:57:42;38.30;37.10
5346;DHT22;2695;49.444;11.054;2022-09-12T10:00:29;38.00;36.90
5346;DHT22;2695;49.444;11.054;2022-09-12T10:03:23;37.90;37.10
5346;DHT22;2695;49.444;11.054;2022-09-12T10:05:53;37.80;37.10
5346;DHT22;2695;49.444;11.054;2022-09-12T10:08:24;37.40;37.50
5346;DHT22;2695;49.444;11.054;2022-09-12T10:10:57;37.20;37.70
5346;DHT22;2695;49.444;11.054;2022-09-12T10:13:33;37.10;38.20
5346;DHT22;2695;49.444;11.054;2022-09-12T10:16:04;36.80;38.40
5346;DHT22;2695;49.444;11.054;2022-09-12T10:18:38;36.70;39.40
5346;DHT22;2695;49.444;11.054;2022-09-12T10:21:29;37.00;37.80
5346;DHT22;2695;49.444;11.054;2022-09-12T10:24:01;36.80;37.50
5346;DHT22;2695;49.444;11.054;2022-09-12T10:26:34;36.40;38.30
5346;DHT22;2695;49.444;11.054;2022-09-12T10:29:12;36.50;38.10
5346;DHT22;2695;49.444;11.054;2022-09-12T10:31:46;36.50;38.50
5346;DHT22;2695;49.444;11.054;2022-09-12T10:34:35;36.40;38.30
5346;DHT22;2695;49.444;11.054;2022-09-12T10:37:05;36.10;39.00
5346;DHT22;2695;49.444;11.054;2022-09-12T10:39:35;35.60;39.20
5346;DHT22;2695;49.444;11.054;2022-09-12T10:42:06;35.10;40.00
5346;DHT22;2695;49.444;11.054;2022-09-12T10:44:34;34.90;40.60
5346;DHT22;2695;49.444;11.054;2022-09-12T10:47:20;34.90;40.30
5346;DHT22;2695;49.444;11.054;2022-09-12T10:49:49;34.70;40.50
5346;DHT22;2695;49.444;11.054;2022-09-12T10:52:21;34.70;40.40
5346;DHT22;2695;49.444;11.054;2022-09-12T10:54:50;34.70;39.80
5346;DHT22;2695;49.444;11.054;2022-09-12T10:57:45;34.60;39.80
5346;DHT22;2695;49.444;11.054;2022-09-12T11:00:18;34.70;40.00
5346;DHT22;2695;49.444;11.054;2022-09-12T11:03:00;34.70;39.40
5346;DHT22;2695;49.444;11.054;2022-09-12T11:05:41;34.60;39.20
5346;DHT22;2695;49.444;11.054;2022-09-12T11:08:39;33.80;40.00
5346;DHT22;2695;49.444;11.054;2022-09-12T11:11:21;32.70;42.00
5346;DHT22;2695;49.444;11.054;2022-09-12T11:14:09;32.20;42.80
5346;DHT22;2695;49.444;11.054;2022-09-12T11:16:47;32.10;43.60
5346;DHT22;2695;49.444;11.054;2022-09-12T11:19:44;32.10;43.70
5346;DHT22;2695;49.444;11.054;2022-09-12T11:22:24;32.10;43.50
5346;DHT22;2695;49.444;11.054;2022-09-12T11:25:21;32.20;44.20
5346;DHT22;2695;49.444;11.054;2022-09-12T11:28:09;32.50;44.50
5346;DHT22;2695;49.444;11.054;2022-09-12T11:30:51;32.90;44.70
5346;DHT22;2695;49.444;11.054;2022-09-12T11:33:34;32.90;44.40
5346;DHT22;2695;49.444;11.054;2022-09-12T11:36:18;32.40;44.90
5346;DHT22;2695;49.444;11.054;2022-09-12T11:38:51;31.70;45.70
5346;DHT22;2695;49.444;11.054;2022-09-12T11:41:28;30.90;47.30
5346;DHT22;2695;49.444;11.054;2022-09-12T11:44:03;30.60;49.30
5346;DHT22;2695;49.444;11.054;2022-09-12T11:46:39;30.60;48.50
5346;DHT22;2695;49.444;11.054;2022-09-12T11:49:18;30.80;48.70
5346;DHT22;2695;49.444;11.054;2022-09-12T11:51:51;30.80;48.90
5346;DHT22;2695;49.444;11.054;2022-09-12T11:54:23;31.00;48.60
5346;DHT22;2695;49.444;11.054;2022-09-12T11:57:00;31.10;48.40
5346;DHT22;2695;49.444;11.054;2022-09-12T11:59:35;31.20;47.70
5346;DHT22;2695;49.444;11.054;2022-09-12T12:02:21;31.20;47.70
5346;DHT22;2695;49.444;11.054;2022-09-12T12:05:03;31.10;47.20
5346;DHT22;2695;49.444;11.054;2022-09-12T12:07:38;30.70;47.80
5346;DHT22;2695;49.444;11.054;2022-09-12T12:10:23;30.20;48.50
5346;DHT22;2695;49.444;11.054;2022-09-12T12:12:53;29.80;49.60
5346;DHT22;2695;49.444;11.054;2022-09-12T12:15:23;29.30;49.90
5346;DHT22;2695;49.444;11.054;2022-09-12T12:18:02;29.20;50.60
5346;DHT22;2695;49.444;11.054;2022-09-12T12:20:32;29.00;50.60
5346;DHT22;2695;49.444;11.054;2022-09-12T12:23:00;28.90;51.70
5346;DHT22;2695;49.444;11.054;2022-09-12T12:25:40;28.80;50.90
5346;DHT22;2695;49.444;11.054;2022-09-12T12:28:55;28.60;51.10
5346;DHT22;2695;49.444;11.054;2022-09-12T12:31:26;28.60;51.10
5346;DHT22;2695;49.444;11.054;2022-09-12T12:36:48;28.80;50.90
5346;DHT22;2695;49.444;11.054;2022-09-12T12:39:53;28.70;50.30
5346;DHT22;2695;49.444;11.054;2022-09-12T12:48:49;29.10;51.10
5346;DHT22;2695;49.444;11.054;2022-09-12T12:51:30;29.10;51.10
5346;DHT22;2695;49.444;11.054;2022-09-12T12:53:59;29.10;51.80
5346;DHT22;2695;49.444;11.054;2022-09-12T12:56:39;29.10;51.40
5346;DHT22;2695;49.444;11.054;2022-09-12T12:59:17;29.20;51.50
5346;DHT22;2695;49.444;11.054;2022-09-12T13:01:48;29.20;50.80
5346;DHT22;2695;49.444;11.054;2022-09-12T13:04:22;29.30;50.70
5346;DHT22;2695;49.444;11.054;2022-09-12T13:06:59;29.40;50.90
5346;DHT22;2695;49.444;11.054;2022-09-12T13:09:36;29.30;49.10
5346;DHT22;2695;49.444;11.054;2022-09-12T13:12:08;29.10;47.70
5346;DHT22;2695;49.444;11.054;2022-09-12T13:14:52;28.90;47.30
5346;DHT22;2695;49.444;11.054;2022-09-12T13:17:25;28.80;47.20
5346;DHT22;2695;49.444;11.054;2022-09-12T13:20:03;28.70;47.10
5346;DHT22;2695;49.444;11.054;2022-09-12T13:22:55;28.50;46.80
5346;DHT22;2695;49.444;11.054;2022-09-12T13:25:26;28.40;48.20
5346;DHT22;2695;49.444;11.054;2022-09-12T13:27:57;28.40;47.70
5346;DHT22;2695;49.444;11.054;2022-09-12T13:30:26;28.40;47.50
5346;DHT22;2695;49.444;11.054;2022-09-12T13:32:56;28.30;47.60
5346;DHT22;2695;49.444;11.054;2022-09-12T13:35:35;28.30;47.40
5346;DHT22;2695;49.444;11.054;2022-09-12T13:38:11;28.30;47.80
5346;DHT22;2695;49.444;11.054;2022-09-12T13:40:56;28.20;48.40
5346;DHT22;2695;49.444;11.054;2022-09-12T13:43:34;28.00;47.50
5346;DHT22;2695;49.444;11.054;2022-09-12T13:46:03;28.00;47.50
5346;DHT22;2695;49.444;11.054;2022-09-12T13:48:33;28.00;47.40
5346;DHT22;2695;49.444;11.054;2022-09-12T13:51:02;28.00;47.10
5346;DHT22;2695;49.444;11.054;2022-09-12T13:53:41;28.00;47.80
5346;DHT22;2695;49.444;11.054;2022-09-12T13:56:15;28.00;48.00
5346;DHT22;2695;49.444;11.054;2022-09-12T13:58:52;28.00;47.90
5346;DHT22;2695;49.444;11.054;2022-09-12T14:01:23;28.10;49.50
5346;DHT22;2695;49.444;11.054;2022-09-12T14:04:15;28.10;51.20
5346;DHT22;2695;49.444;11.054;2022-09-12T14:07:06;28.00;50.90
5346;DHT22;2695;49.444;11.054;2022-09-12T14:09:40;27.90;50.90
5346;DHT22;2695;49.444;11.054;2022-09-12T14:12:14;28.00;50.40
5346;DHT22;2695;49.444;11.054;2022-09-12T14:14:49;28.00;52.00
5346;DHT22;2695;49.444;11.054;2022-09-12T14:17:23;28.00;49.90
5346;DHT22;2695;49.444;11.054;2022-09-12T14:20:04;27.90;50.50
5346;DHT22;2695;49.444;11.054;2022-09-12T14:22:36;27.90;52.40
5346;DHT22;2695;49.444;11.054;2022-09-12T14:25:13;28.00;53.00
5346;DHT22;2695;49.444;11.054;2022-09-12T14:27:44;28.10;53.20
5346;DHT22;2695;49.444;11.054;2022-09-12T14:30:25;28.00;52.40
5346;DHT22;2695;49.444;11.054;2022-09-12T14:33:17;27.80;52.40
5346;DHT22;2695;49.444;11.054;2022-09-12T14:35:47;27.80;52.40
5346;DHT22;2695;49.444;11.054;2022-09-12T14:38:23;27.80;52.00
5346;DHT22;2695;49.444;11.054;2022-09-12T14:40:59;27.70;51.80
5346;DHT22;2695;49.444;11.054;2022-09-12T14:43:29;27.60;53.10
5346;DHT22;2695;49.444;11.054;2022-09-12T14:45:59;27.40;53.50
5346;DHT22;2695;49.444;11.054;2022-09-12T14:48:31;27.30;53.10
5346;DHT22;2695;49.444;11.054;2022-09-12T14:50:59;27.10;53.70
5346;DHT22;2695;49.444;11.054;2022-09-12T14:53:32;26.90;54.30
5346;DHT22;2695;49.444;11.054;2022-09-12T14:56:10;26.90;54.90
5346;DHT22;2695;49.444;11.054;2022-09-12T14:58:39;26.90;55.00
5346;DHT22;2695;49.444;11.054;2022-09-12T15:01:24;26.70;54.80
5346;DHT22;2695;49.444;11.054;2022-09-12T15:03:54;26.60;55.20
5346;DHT22;2695;49.444;11.054;2022-09-12T15:06:27;26.60;55.10
5346;DHT22;2695;49.444;11.054;2022-09-12T15:08:57;26.70;55.40
5346;DHT22;2695;49.444;11.054;2022-09-12T15:11:28;26.90;55.50
5346;DHT22;2695;49.444;11.054;2022-09-12T15:13:56;27.00;54.70
5346;DHT22;2695;49.444;11.054;2022-09-12T15:16:24;27.10;54.40
5346;DHT22;2695;49.444;11.054;2022-09-12T15:18:52;27.10;54.80
5346;DHT22;2695;49.444;11.054;2022-09-12T15:21:20;27.20;53.80
5346;DHT22;2695;49.444;11.054;2022-09-12T15:23:50;27.10;54.00
5346;DHT22;2695;49.444;11.054;2022-09-12T15:26:20;27.20;54.30
5346;DHT22;2695;49.444;11.054;2022-09-12T15:28:50;27.20;53.60
5346;DHT22;2695;49.444;11.054;2022-09-12T15:31:23;27.30;54.10
5346;DHT22;2695;49.444;11.054;2022-09-12T15:33:52;27.40;53.90
5346;DHT22;2695;49.444;11.054;2022-09-12T15:36:22;27.50;54.10
5346;DHT22;2695;49.444;11.054;2022-09-12T15:38:51;27.30;54.20
5346;DHT22;2695;49.444;11.054;2022-09-12T15:41:21;27.10;54.50
5346;DHT22;2695;49.444;11.054;2022-09-12T15:43:51;26.80;55.00
5346;DHT22;2695;49.444;11.054;2022-09-12T15:46:19;26.50;55.80
5346;DHT22;2695;49.444;11.054;2022-09-12T15:48:53;26.30;55.80
5346;DHT22;2695;49.444;11.054;2022-09-12T15:51:38;26.20;56.30
5346;DHT22;2695;49.444;11.054;2022-09-12T15:54:10;26.10;56.80
5346;DHT22;2695;49.444;11.054;2022-09-12T15:56:40;26.00;57.30
5346;DHT22;2695;49.444;11.054;2022-09-12T15:59:11;25.90;57.90
5346;DHT22;2695;49.444;11.054;2022-09-12T16:01:39;25.70;58.10
5346;DHT22;2695;49.444;11.054;2022-09-12T16:04:19;25.70;58.70
5346;DHT22;2695;49.444;11.054;2022-09-12T16:06:53;25.70;58.80
5346;DHT22;2695;49.444;11.054;2022-09-12T16:09:22;25.60;59.10
5346;DHT22;2695;49.444;11.054;2022-09-12T16:11:50;25.60;58.80
5346;DHT22;2695;49.444;11.054;2022-09-12T16:14:20;25.40;58.80
5346;DHT22;2695;49.444;11.054;2022-09-12T16:16:51;25.40;58.80
5346;DHT22;2695;49.444;11.054;2022-09-12T16:19:20;25.30;59.10
5346;DHT22;2695;49.444;11.054;2022-09-12T16:21:48;25.20;59.30
5346;DHT22;2695;49.444;11.054;2022-09-12T16:24:17;24.90;59.90
5346;DHT22;2695;49.444;11.054;2022-09-12T16:26:45;24.70;60.70
5346;DHT22;2695;49.444;11.054;2022-09-12T16:29:13;24.50;60.80
5346;DHT22;2695;49.444;11.054;2022-09-12T16:31:42;24.40;61.60
5346;DHT22;2695;49.444;11.054;2022-09-12T16:34:11;24.30;61.60